Relevés horaires Bruxelles-National (Belgique)


Relevés horaires à Bruxelles-National - Lundi 09 Mai 2022
Heure UTC1 Température [°C] Vent [km/h] Hum. [%] Pres.4 [hPa] Visi. [Km] Nébu. [octa] Préc.5 [mm] Cond.
2m. Res. Ros. Dir.2 Vit. Moy. Raf.3
23:00 13.1 13.1 8.4 S 1.9 1.9 1.9 73 1022(-0.3/3h) 30 4/8 -- --
22:00 16.1 16.1 8.7 O 1.9 5.6 7.4 61 1022.2(0.3/3h) 50 7/8 -- --
21:00 17.9 17.9 8.6 NO 5.6 5.6 11.1 54 1022.6(0.7/3h) 50 7/8 -- --
20:00 17.3 17.3 9.3 OSO 5.6 5.6 5.6 59 1022.2(0.0/3h) 50 5/8 -- --
19:00 19.4 19.4 8.7 OSO 5.6 5.6 11.1 50 1021.8(-0.6/3h) 50 6/8 -- --
18:00 22.2 22.2 8.8 SO 5.6 9.3 18.5 42 1021.8(-1.2/3h) 40 6/8 0/12h
--
17:00 23.7 23.7 8.8 SO 9.3 9.3 13.0 39 1022.2(-1.4/3h) 35 7/8 -- --
16:00 23.5 23.5 7.4 OSO 5.6 7.4 11.1 36 1022.3(-2.1/3h) 35 6/8 -- --
15:00 23.3 23.3 8.0 S 5.6 7.4 18.5 37 1023(-2.1/3h) 35 3/8 -- --
14:00 23.5 23.5 8.6 NNO 3.7 5.6 11.1 39 1023.6(-1.9/3h) 35 2/8 -- --
13:00 22.0 22.0 7.9 OSO 3.7 3.7 7.4 40 1024.4(-1.5/3h) 35 2/8 -- --
12:00 21.6 21.6 7.6 NNO 1.9 5.6 7.4 40 1025.1(-1.2/3h) 35 2/8 0/6h
--
11:00 19.9 19.9 5.9 NNO 1.9 3.7 7.4 40 1025.6(-0.8/3h) 35 1/8 -- --
10:00 19.2 19.2 4.7 NE 3.7 5.6 7.4 38 1026(-0.2/3h) 35 1/8 -- --
09:00 18.5 18.5 6.3 E 3.7 3.7 7.4 45 1026.3(0.1/3h) 35 1/8 -- --
08:00 15.9 15.9 7.0 E 1.9 3.7 7.4 55 1026.5(0.3/3h) 35 1/8 -- --
07:00 12.9 12.9 5.3 ESE 3.7 3.7 7.4 60 1026.3(-0.2/3h) 35 1/8 -- --
06:00 10.3 10.3 6.6 NNO 0.0 1.9 1.9 78 1026.4(-0.3/3h) 35 1/8 0/12h
--
05:00 7.0 7.0 4.7 NNO 0.0 1.9 1.9 85 1026.5(-0.3/3h) 40 0/8 -- --
04:00 6.7 6.7 4.7 NNO 0.0 1.9 1.9 87 1026.7(-0.5/3h) 40 0/8 -- --
03:00 7.8 7.8 5.3 NNO 0.0 1.9 1.9 84 1026.7(-0.6/3h) 40 0/8 -- --
02:00 7.9 7.9 5.1 NNO 0.0 1.9 1.9 82 1026.8(-0.8/3h) 40 0/8 -- --
01:00 8.4 8.4 5.0 NNO 1.9 1.9 1.9 79 1027.2(-0.4/3h) 40 0/8 -- --
00:00 9.6 9.6 5.1 NNO 0.0 7.4 11.1 73 1027.3(0.0/3h) 40 0/8 0/6h
0/24h
--

1 Coordinated Universal Time. Actuellement il est 06:00 locale et 04:00 UTC.

2 Le vent souffle depuis la direction indiquée vers la direction oposée.

3 Les rafales max. sont disponible 40 min après l'heure du relevé.

4 Pour les stations d'altitude (plus de 600m) le géopotentiel du niveau le plus proche de la pression obligatoire est indiqué.

5 Les stations disposant d'un diffuseur peuvent indiquer "trace". Cela signifie que des précipitations ont touchés le sol mais que la quantité est inférieure à 0.1 mm.

Récapitulatif de la journée
Température [°C] Vent [km/h] Ensoleillement4 [h] Precipitations totale5 [mm] Pression [Hpa]
Min1 Max.2 Moy.3 Max. Min Max.
5.5 24.6 4.7 18.5 0 h 0 min 0 1021.8 1027.3

1 Température minimale relevée entre 18:00 UTC la veille et 18:00 UTC le jour donné.

2 Température maximale relevée entre 06:00 UTC le jour donné et 06:00 UTC le lendemain.

3 Vent moyen de la journée basé sur les relevés horaires.

4 Ensoleillement en heures relevé entre 06:00 UTC la veille et 06:00 UTC le jour donné.

5 Précipitations totales tombées entre 06:00 UTC la jour donné et 06:00 UTC le lendemain.

Graphiques horaires